sensor_id;sensor_type;location;lat;lon;timestamp;pressure;altitude;pressure_sealevel;temperature;humidity
56658;BME280;42530;52.240;19.354;2022-09-12T00:01:10;53040.41;;;-144.69;48.32
56658;BME280;42530;52.240;19.354;2022-09-12T00:03:36;53036.22;;;-144.69;48.34
56658;BME280;42530;52.240;19.354;2022-09-12T00:06:08;53069.53;;;-144.69;48.74
56658;BME280;42530;52.240;19.354;2022-09-12T00:08:34;53048.72;;;-144.69;48.31
56658;BME280;42530;52.240;19.354;2022-09-12T00:11:04;53005.03;;;-144.69;48.53
56658;BME280;42530;52.240;19.354;2022-09-12T00:13:30;53023.75;;;-144.69;48.64
56658;BME280;42530;52.240;19.354;2022-09-12T00:15:55;53015.44;;;-144.69;48.89
56658;BME280;42530;52.240;19.354;2022-09-12T00:18:21;53017.50;;;-144.69;49.45
56658;BME280;42530;52.240;19.354;2022-09-12T00:20:47;53042.47;;;-144.69;49.06
56658;BME280;42530;52.240;19.354;2022-09-12T00:23:13;53034.16;;;-144.69;49.17
56658;BME280;42530;52.240;19.354;2022-09-12T00:25:44;53015.44;;;-144.69;49.40
56658;BME280;42530;52.240;19.354;2022-09-12T00:28:11;53027.91;;;-144.69;48.45
56658;BME280;42530;52.240;19.354;2022-09-12T00:30:47;53040.41;;;-144.69;48.63
56658;BME280;42530;52.240;19.354;2022-09-12T00:33:15;53021.66;;;-144.69;49.61
56658;BME280;42530;52.240;19.354;2022-09-12T00:35:48;53046.63;;;-144.69;49.65
56658;BME280;42530;52.240;19.354;2022-09-12T00:38:15;52986.31;;;-144.69;49.72
56658;BME280;42530;52.240;19.354;2022-09-12T00:40:41;53000.88;;;-144.69;49.52
56658;BME280;42530;52.240;19.354;2022-09-12T00:45:40;53042.47;;;-144.69;50.09
56658;BME280;42530;52.240;19.354;2022-09-12T00:48:17;53046.63;;;-144.69;49.63
56658;BME280;42530;52.240;19.354;2022-09-12T00:50:45;53027.91;;;-144.69;50.03
56658;BME280;42530;52.240;19.354;2022-09-12T00:53:12;53019.59;;;-144.69;50.41
56658;BME280;42530;52.240;19.354;2022-09-12T00:55:40;53032.06;;;-144.69;49.95
56658;BME280;42530;52.240;19.354;2022-09-12T00:58:19;53032.06;;;-144.69;50.34
56658;BME280;42530;52.240;19.354;2022-09-12T01:00:46;53040.41;;;-144.69;50.18
56658;BME280;42530;52.240;19.354;2022-09-12T01:03:17;53050.78;;;-144.69;50.32
56658;BME280;42530;52.240;19.354;2022-09-12T01:06:02;53050.78;;;-144.69;50.02
56658;BME280;42530;52.240;19.354;2022-09-12T01:08:30;53013.34;;;-144.69;50.99
56658;BME280;42530;52.240;19.354;2022-09-12T01:10:57;53025.84;;;-144.69;50.23
56658;BME280;42530;52.240;19.354;2022-09-12T01:13:23;53019.59;;;-144.69;50.23
56658;BME280;42530;52.240;19.354;2022-09-12T01:15:48;53046.63;;;-144.69;50.86
56658;BME280;42530;52.240;19.354;2022-09-12T01:21:57;53011.28;;;-144.69;50.03
56658;BME280;42530;52.240;19.354;2022-09-12T01:32:12;53023.75;;;-144.69;50.56
56658;BME280;42530;52.240;19.354;2022-09-12T01:34:46;53027.91;;;-144.69;50.88
56658;BME280;42530;52.240;19.354;2022-09-12T01:37:25;53052.88;;;-144.69;50.73
56658;BME280;42530;52.240;19.354;2022-09-12T01:40:22;53042.47;;;-144.69;50.50
56658;BME280;42530;52.240;19.354;2022-09-12T01:43:03;53015.44;;;-144.69;50.17
56658;BME280;42530;52.240;19.354;2022-09-12T01:45:53;53050.78;;;-144.69;50.52
56658;BME280;42530;52.240;19.354;2022-09-12T01:48:29;53015.44;;;-144.69;50.63
56658;BME280;42530;52.240;19.354;2022-09-12T01:54:08;53040.41;;;-144.69;50.51
56658;BME280;42530;52.240;19.354;2022-09-12T01:56:38;53036.22;;;-144.69;50.82
56658;BME280;42530;52.240;19.354;2022-09-12T01:59:26;53046.63;;;-144.69;50.12
56658;BME280;42530;52.240;19.354;2022-09-12T02:02:06;53048.72;;;-144.69;50.79
56658;BME280;42530;52.240;19.354;2022-09-12T02:04:57;53019.59;;;-144.69;50.57
56658;BME280;42530;52.240;19.354;2022-09-12T02:07:35;53071.59;;;-144.69;50.51
56658;BME280;42530;52.240;19.354;2022-09-12T02:10:10;53038.31;;;-144.69;50.77
56658;BME280;42530;52.240;19.354;2022-09-12T02:12:39;53019.59;;;-144.69;50.55
56658;BME280;42530;52.240;19.354;2022-09-12T02:15:08;53036.22;;;-144.69;51.82
56658;BME280;42530;52.240;19.354;2022-09-12T02:17:38;53042.47;;;-144.69;50.87
56658;BME280;42530;52.240;19.354;2022-09-12T02:20:11;53057.03;;;-144.69;51.05
56658;BME280;42530;52.240;19.354;2022-09-12T02:22:41;53046.63;;;-144.69;51.25
56658;BME280;42530;52.240;19.354;2022-09-12T02:25:09;53040.41;;;-144.69;51.46
56658;BME280;42530;52.240;19.354;2022-09-12T02:27:43;53048.72;;;-144.69;50.69
56658;BME280;42530;52.240;19.354;2022-09-12T02:30:11;53019.59;;;-144.69;50.75
56658;BME280;42530;52.240;19.354;2022-09-12T02:32:55;53036.22;;;-144.69;50.53
56658;BME280;42530;52.240;19.354;2022-09-12T02:35:41;53027.91;;;-144.69;50.34
56658;BME280;42530;52.240;19.354;2022-09-12T02:38:13;53057.03;;;-144.69;50.75
56658;BME280;42530;52.240;19.354;2022-09-12T02:40:42;53005.03;;;-144.69;50.63
56658;BME280;42530;52.240;19.354;2022-09-12T02:43:07;53040.41;;;-144.69;50.77
56658;BME280;42530;52.240;19.354;2022-09-12T02:45:34;53011.28;;;-144.69;51.13
56658;BME280;42530;52.240;19.354;2022-09-12T02:48:17;52998.78;;;-144.69;50.31
56658;BME280;42530;52.240;19.354;2022-09-12T02:50:43;53071.59;;;-144.69;50.71
56658;BME280;42530;52.240;19.354;2022-09-12T02:53:10;53036.22;;;-144.69;51.03
56658;BME280;42530;52.240;19.354;2022-09-12T02:55:38;53007.09;;;-144.69;50.96
56658;BME280;42530;52.240;19.354;2022-09-12T02:58:07;53036.22;;;-144.69;50.94
56658;BME280;42530;52.240;19.354;2022-09-12T03:00:37;53057.03;;;-144.69;50.40
56658;BME280;42530;52.240;19.354;2022-09-12T03:03:42;53030.00;;;-144.69;50.91
56658;BME280;42530;52.240;19.354;2022-09-12T03:09:10;52990.47;;;-144.69;51.41
56658;BME280;42530;52.240;19.354;2022-09-12T03:12:02;53021.66;;;-144.69;51.22
56658;BME280;42530;52.240;19.354;2022-09-12T03:14:57;53040.41;;;-144.69;50.77
56658;BME280;42530;52.240;19.354;2022-09-12T03:23:03;53015.44;;;-144.69;51.27
56658;BME280;42530;52.240;19.354;2022-09-12T03:25:42;53044.56;;;-144.69;50.99
56658;BME280;42530;52.240;19.354;2022-09-12T03:28:14;53027.91;;;-144.69;51.29
56658;BME280;42530;52.240;19.354;2022-09-12T03:30:43;53048.72;;;-144.69;51.11
56658;BME280;42530;52.240;19.354;2022-09-12T03:33:18;53034.16;;;-144.69;50.91
56658;BME280;42530;52.240;19.354;2022-09-12T03:35:44;53040.41;;;-144.69;51.13
56658;BME280;42530;52.240;19.354;2022-09-12T03:38:10;53048.72;;;-144.69;51.68
56658;BME280;42530;52.240;19.354;2022-09-12T03:40:37;53040.41;;;-144.69;51.15
56658;BME280;42530;52.240;19.354;2022-09-12T03:43:03;53040.41;;;-144.69;51.79
56658;BME280;42530;52.240;19.354;2022-09-12T03:45:29;53036.22;;;-144.69;51.35
56658;BME280;42530;52.240;19.354;2022-09-12T03:47:55;53042.47;;;-144.69;51.32
56658;BME280;42530;52.240;19.354;2022-09-12T03:50:21;53027.91;;;-144.69;51.09
56658;BME280;42530;52.240;19.354;2022-09-12T03:52:46;53046.63;;;-144.69;51.28
56658;BME280;42530;52.240;19.354;2022-09-12T03:55:12;53052.88;;;-144.69;50.68
56658;BME280;42530;52.240;19.354;2022-09-12T03:57:38;53023.75;;;-144.69;51.53
56658;BME280;42530;52.240;19.354;2022-09-12T04:00:05;53040.41;;;-144.69;50.83
56658;BME280;42530;52.240;19.354;2022-09-12T04:02:32;53040.41;;;-144.69;52.00
56658;BME280;42530;52.240;19.354;2022-09-12T04:04:57;53069.53;;;-144.69;51.90
56658;BME280;42530;52.240;19.354;2022-09-12T04:07:22;53054.97;;;-144.69;51.02
56658;BME280;42530;52.240;19.354;2022-09-12T04:09:48;53040.41;;;-144.69;51.45
56658;BME280;42530;52.240;19.354;2022-09-12T04:12:14;53038.31;;;-144.69;51.37
56658;BME280;42530;52.240;19.354;2022-09-12T04:14:40;53086.16;;;-144.69;51.41
56658;BME280;42530;52.240;19.354;2022-09-12T04:17:05;53044.56;;;-144.69;51.27
56658;BME280;42530;52.240;19.354;2022-09-12T04:19:31;53032.06;;;-144.69;51.72
56658;BME280;42530;52.240;19.354;2022-09-12T04:21:57;53059.13;;;-144.69;51.75
56658;BME280;42530;52.240;19.354;2022-09-12T04:24:22;53040.41;;;-144.69;51.41
56658;BME280;42530;52.240;19.354;2022-09-12T04:26:47;53061.19;;;-144.69;51.12
56658;BME280;42530;52.240;19.354;2022-09-12T04:29:13;53073.69;;;-144.69;51.51
56658;BME280;42530;52.240;19.354;2022-09-12T04:31:39;53032.06;;;-144.69;50.66
56658;BME280;42530;52.240;19.354;2022-09-12T04:34:05;53048.72;;;-144.69;50.77
56658;BME280;42530;52.240;19.354;2022-09-12T04:36:31;53038.31;;;-144.69;50.55
56658;BME280;42530;52.240;19.354;2022-09-12T04:39:00;53042.47;;;-144.69;49.93
56658;BME280;42530;52.240;19.354;2022-09-12T04:41:34;53027.91;;;-144.69;49.75
56658;BME280;42530;52.240;19.354;2022-09-12T04:44:06;53077.84;;;-144.69;50.25
56658;BME280;42530;52.240;19.354;2022-09-12T04:46:35;53027.91;;;-144.69;50.35
56658;BME280;42530;52.240;19.354;2022-09-12T04:49:02;53059.13;;;-144.69;49.88
56658;BME280;42530;52.240;19.354;2022-09-12T04:51:29;53040.41;;;-144.69;50.13
56658;BME280;42530;52.240;19.354;2022-09-12T04:54:01;53046.63;;;-144.69;49.80
56658;BME280;42530;52.240;19.354;2022-09-12T04:56:28;53096.56;;;-144.69;50.38
56658;BME280;42530;52.240;19.354;2022-09-12T04:58:56;53050.78;;;-144.69;50.63
56658;BME280;42530;52.240;19.354;2022-09-12T05:01:22;53071.59;;;-144.69;50.01
56658;BME280;42530;52.240;19.354;2022-09-12T05:03:52;53065.34;;;-144.69;50.11
56658;BME280;42530;52.240;19.354;2022-09-12T05:06:20;53048.72;;;-144.69;49.95
56658;BME280;42530;52.240;19.354;2022-09-12T05:08:46;53034.16;;;-144.69;50.20
56658;BME280;42530;52.240;19.354;2022-09-12T05:11:14;53027.91;;;-144.69;49.84
56658;BME280;42530;52.240;19.354;2022-09-12T05:13:40;53005.03;;;-144.69;49.61
56658;BME280;42530;52.240;19.354;2022-09-12T05:16:07;53040.41;;;-144.69;49.37
56658;BME280;42530;52.240;19.354;2022-09-12T05:18:34;53023.75;;;-144.69;49.39
56658;BME280;42530;52.240;19.354;2022-09-12T05:21:03;53027.91;;;-144.69;48.72
56658;BME280;42530;52.240;19.354;2022-09-12T05:23:29;53077.84;;;-144.69;49.34
56658;BME280;42530;52.240;19.354;2022-09-12T05:25:57;53048.72;;;-144.69;49.14
56658;BME280;42530;52.240;19.354;2022-09-12T05:28:24;53025.84;;;-144.69;49.16
56658;BME280;42530;52.240;19.354;2022-09-12T05:31:32;53057.03;;;-144.69;48.89
56658;BME280;42530;52.240;19.354;2022-09-12T05:33:53;53027.91;;;-144.69;49.22
56658;BME280;42530;52.240;19.354;2022-09-12T05:36:21;53052.88;;;-144.69;48.76
56658;BME280;42530;52.240;19.354;2022-09-12T05:38:48;53030.00;;;-144.69;49.19
56658;BME280;42530;52.240;19.354;2022-09-12T05:41:16;53038.31;;;-144.69;48.63
56658;BME280;42530;52.240;19.354;2022-09-12T05:43:44;53027.91;;;-144.69;48.56
56658;BME280;42530;52.240;19.354;2022-09-12T05:46:15;53048.72;;;-144.69;48.02
56658;BME280;42530;52.240;19.354;2022-09-12T05:48:43;53050.78;;;-144.69;48.07
56658;BME280;42530;52.240;19.354;2022-09-12T05:51:28;53065.34;;;-144.69;47.44
56658;BME280;42530;52.240;19.354;2022-09-12T05:53:57;53032.06;;;-144.69;47.20
56658;BME280;42530;52.240;19.354;2022-09-12T05:56:29;53052.88;;;-144.69;47.44
56658;BME280;42530;52.240;19.354;2022-09-12T05:59:03;53036.22;;;-144.69;46.81
56658;BME280;42530;52.240;19.354;2022-09-12T06:01:34;53059.13;;;-144.69;46.74
56658;BME280;42530;52.240;19.354;2022-09-12T06:04:02;53061.19;;;-144.69;46.72
56658;BME280;42530;52.240;19.354;2022-09-12T06:06:29;53052.88;;;-144.69;46.97
56658;BME280;42530;52.240;19.354;2022-09-12T06:08:58;53048.72;;;-144.69;47.02
56658;BME280;42530;52.240;19.354;2022-09-12T06:11:26;53027.91;;;-144.69;46.46
56658;BME280;42530;52.240;19.354;2022-09-12T06:13:52;53065.34;;;-144.69;46.34
56658;BME280;42530;52.240;19.354;2022-09-12T06:16:21;53057.03;;;-144.69;46.56
56658;BME280;42530;52.240;19.354;2022-09-12T06:19:23;53050.78;;;-144.69;46.60
56658;BME280;42530;52.240;19.354;2022-09-12T06:21:41;53061.19;;;-144.69;46.24
56658;BME280;42530;52.240;19.354;2022-09-12T06:24:08;53067.44;;;-144.69;46.33
56658;BME280;42530;52.240;19.354;2022-09-12T06:26:33;53061.19;;;-144.69;46.24
56658;BME280;42530;52.240;19.354;2022-09-12T06:28:59;53075.75;;;-144.69;45.98
56658;BME280;42530;52.240;19.354;2022-09-12T06:31:30;53036.22;;;-144.69;45.23
56658;BME280;42530;52.240;19.354;2022-09-12T06:34:00;53094.47;;;-144.69;45.50
56658;BME280;42530;52.240;19.354;2022-09-12T06:36:29;53054.97;;;-144.69;45.15
56658;BME280;42530;52.240;19.354;2022-09-12T06:38:58;53090.31;;;-144.69;44.62
56658;BME280;42530;52.240;19.354;2022-09-12T06:41:25;53096.56;;;-144.69;44.72
56658;BME280;42530;52.240;19.354;2022-09-12T06:43:52;53086.16;;;-144.69;45.07
56658;BME280;42530;52.240;19.354;2022-09-12T06:46:17;53098.66;;;-144.69;44.79
56658;BME280;42530;52.240;19.354;2022-09-12T06:48:43;53077.84;;;-144.69;44.66
56658;BME280;42530;52.240;19.354;2022-09-12T06:51:11;53106.97;;;-144.69;44.04
56658;BME280;42530;52.240;19.354;2022-09-12T06:53:38;53073.69;;;-144.69;44.07
56658;BME280;42530;52.240;19.354;2022-09-12T06:58:35;53082.00;;;-144.69;43.36
56658;BME280;42530;52.240;19.354;2022-09-12T07:03:27;53111.13;;;-144.69;43.36
56658;BME280;42530;52.240;19.354;2022-09-12T07:05:53;53136.09;;;-144.69;42.59
56658;BME280;42530;52.240;19.354;2022-09-12T07:08:19;53106.97;;;-144.69;42.08
56658;BME280;42530;52.240;19.354;2022-09-12T07:10:44;53113.22;;;-144.69;42.07
56658;BME280;42530;52.240;19.354;2022-09-12T07:13:10;53111.13;;;-144.69;41.58
56658;BME280;42530;52.240;19.354;2022-09-12T07:15:35;53123.63;;;-144.69;41.25
56658;BME280;42530;52.240;19.354;2022-09-12T07:18:02;53119.44;;;-144.69;41.27
56658;BME280;42530;52.240;19.354;2022-09-12T07:20:28;53109.06;;;-144.69;41.02
56658;BME280;42530;52.240;19.354;2022-09-12T07:22:54;53098.66;;;-144.69;40.01
56658;BME280;42530;52.240;19.354;2022-09-12T07:25:19;53161.06;;;-144.69;39.91
56658;BME280;42530;52.240;19.354;2022-09-12T07:27:45;53177.72;;;-144.69;40.28
56658;BME280;42530;52.240;19.354;2022-09-12T07:30:10;53144.41;;;-144.69;39.92
56658;BME280;42530;52.240;19.354;2022-09-12T07:32:36;53134.00;;;-144.69;39.82
56658;BME280;42530;52.240;19.354;2022-09-12T07:35:01;53123.63;;;-144.69;38.50
56658;BME280;42530;52.240;19.354;2022-09-12T07:37:29;53134.00;;;-144.69;37.36
56658;BME280;42530;52.240;19.354;2022-09-12T07:39:55;53113.22;;;-144.69;37.85
56658;BME280;42530;52.240;19.354;2022-09-12T07:42:22;53106.97;;;-144.69;37.04
56658;BME280;42530;52.240;19.354;2022-09-12T07:44:47;53098.66;;;-144.69;36.26
56658;BME280;42530;52.240;19.354;2022-09-12T07:47:14;53104.88;;;-144.69;35.62
56658;BME280;42530;52.240;19.354;2022-09-12T07:49:39;53119.44;;;-144.69;35.03
56658;BME280;42530;52.240;19.354;2022-09-12T07:52:04;53090.31;;;-144.69;34.19
56658;BME280;42530;52.240;19.354;2022-09-12T07:54:30;53102.81;;;-144.69;34.02
56658;BME280;42530;52.240;19.354;2022-09-12T07:56:57;53088.25;;;-144.69;32.96
56658;BME280;42530;52.240;19.354;2022-09-12T07:59:23;53115.28;;;-144.69;32.19
56658;BME280;42530;52.240;19.354;2022-09-12T08:01:48;53140.25;;;-144.69;32.03
56658;BME280;42530;52.240;19.354;2022-09-12T08:04:13;53075.75;;;-144.69;31.30
56658;BME280;42530;52.240;19.354;2022-09-12T08:06:40;53094.47;;;-144.69;30.58
56658;BME280;42530;52.240;19.354;2022-09-12T08:09:05;53100.72;;;-144.69;29.97
56658;BME280;42530;52.240;19.354;2022-09-12T08:11:32;53106.97;;;-144.69;30.51
56658;BME280;42530;52.240;19.354;2022-09-12T08:13:58;53090.31;;;-144.69;29.96
56658;BME280;42530;52.240;19.354;2022-09-12T08:16:29;53069.53;;;-144.69;29.36
56658;BME280;42530;52.240;19.354;2022-09-12T08:18:55;53102.81;;;-144.69;29.75
56658;BME280;42530;52.240;19.354;2022-09-12T08:21:28;53096.56;;;-144.69;28.90
56658;BME280;42530;52.240;19.354;2022-09-12T08:23:59;53090.31;;;-144.69;28.99
56658;BME280;42530;52.240;19.354;2022-09-12T08:26:25;53100.72;;;-144.69;28.67
56658;BME280;42530;52.240;19.354;2022-09-12T08:28:51;53044.56;;;-144.69;28.40
56658;BME280;42530;52.240;19.354;2022-09-12T08:31:19;53082.00;;;-144.69;29.08
56658;BME280;42530;52.240;19.354;2022-09-12T08:33:45;53113.22;;;-144.69;29.57
56658;BME280;42530;52.240;19.354;2022-09-12T08:36:16;53044.56;;;-144.69;28.77
56658;BME280;42530;52.240;19.354;2022-09-12T08:38:43;53131.94;;;-144.69;27.74
56658;BME280;42530;52.240;19.354;2022-09-12T08:49:23;53007.09;;;-144.69;28.48
56658;BME280;42530;52.240;19.354;2022-09-12T08:51:49;53044.56;;;-144.69;29.08
56658;BME280;42530;52.240;19.354;2022-09-12T08:54:20;53052.88;;;-144.69;29.22
56658;BME280;42530;52.240;19.354;2022-09-12T08:56:48;53067.44;;;-144.69;30.13
56658;BME280;42530;52.240;19.354;2022-09-12T08:59:14;53002.94;;;-144.69;29.45
56658;BME280;42530;52.240;19.354;2022-09-12T09:01:42;53131.94;;;-144.69;29.85
56658;BME280;42530;52.240;19.354;2022-09-12T09:04:46;53061.19;;;-144.69;29.95
56658;BME280;42530;52.240;19.354;2022-09-12T09:07:24;53011.28;;;-144.69;28.97
56658;BME280;42530;52.240;19.354;2022-09-12T09:10:06;53106.97;;;-144.69;29.38
56658;BME280;42530;52.240;19.354;2022-09-12T09:12:35;53131.94;;;-144.69;29.28
56658;BME280;42530;52.240;19.354;2022-09-12T09:17:59;53019.59;;;-144.69;29.29
56658;BME280;42530;52.240;19.354;2022-09-12T09:20:33;53146.50;;;-144.69;29.78
56658;BME280;42530;52.240;19.354;2022-09-12T09:26:05;53096.56;;;-144.69;28.40
56658;BME280;42530;52.240;19.354;2022-09-12T09:28:54;53173.53;;;-144.69;29.32
56658;BME280;42530;52.240;19.354;2022-09-12T09:31:24;53052.88;;;-144.69;26.55
56658;BME280;42530;52.240;19.354;2022-09-12T09:33:52;53032.06;;;-144.69;27.34
56658;BME280;42530;52.240;19.354;2022-09-12T09:36:29;53017.50;;;-144.69;29.16
56658;BME280;42530;52.240;19.354;2022-09-12T09:39:03;53032.06;;;-144.69;30.74
56658;BME280;42530;52.240;19.354;2022-09-12T09:44:04;53102.81;;;-144.69;28.39
56658;BME280;42530;52.240;19.354;2022-09-12T09:46:30;53111.13;;;-144.69;25.41
56658;BME280;42530;52.240;19.354;2022-09-12T09:48:56;53073.69;;;-144.69;24.15
56658;BME280;42530;52.240;19.354;2022-09-12T09:51:26;53106.97;;;-144.69;23.26
56658;BME280;42530;52.240;19.354;2022-09-12T09:53:57;53002.94;;;-144.69;24.09
56658;BME280;42530;52.240;19.354;2022-09-12T09:56:35;52992.53;;;-144.69;26.12
56658;BME280;42530;52.240;19.354;2022-09-12T09:59:16;53115.28;;;-144.69;24.91
56658;BME280;42530;52.240;19.354;2022-09-12T10:01:52;53106.97;;;-144.69;22.92
56658;BME280;42530;52.240;19.354;2022-09-12T10:04:31;52965.50;;;-144.69;22.61
56658;BME280;42530;52.240;19.354;2022-09-12T10:07:01;52967.59;;;-144.69;24.62
56658;BME280;42530;52.240;19.354;2022-09-12T10:09:34;53146.50;;;-144.69;24.64
56658;BME280;42530;52.240;19.354;2022-09-12T10:12:23;52982.16;;;-144.69;22.92
56658;BME280;42530;52.240;19.354;2022-09-12T10:15:01;53092.41;;;-144.69;23.65
56658;BME280;42530;52.240;19.354;2022-09-12T10:17:29;53019.59;;;-144.69;22.84
56658;BME280;42530;52.240;19.354;2022-09-12T10:19:56;53017.50;;;-144.69;23.08
56658;BME280;42530;52.240;19.354;2022-09-12T10:22:27;53017.50;;;-144.69;24.86
56658;BME280;42530;52.240;19.354;2022-09-12T10:24:58;53082.00;;;-144.69;25.41
56658;BME280;42530;52.240;19.354;2022-09-12T10:27:27;53094.47;;;-144.69;24.42
56658;BME280;42530;52.240;19.354;2022-09-12T10:30:18;53090.31;;;-144.69;22.10
56658;BME280;42530;52.240;19.354;2022-09-12T10:32:49;52946.78;;;-144.69;22.10
56658;BME280;42530;52.240;19.354;2022-09-12T10:37:50;52994.63;;;-144.69;26.50
56658;BME280;42530;52.240;19.354;2022-09-12T10:40:29;53098.66;;;-144.69;24.92
56658;BME280;42530;52.240;19.354;2022-09-12T10:43:00;53063.28;;;-144.69;22.63
56658;BME280;42530;52.240;19.354;2022-09-12T10:45:32;53011.28;;;-144.69;23.01
56658;BME280;42530;52.240;19.354;2022-09-12T10:48:01;53073.69;;;-144.69;24.30
56658;BME280;42530;52.240;19.354;2022-09-12T10:53:25;53027.91;;;-144.69;20.42
56658;BME280;42530;52.240;19.354;2022-09-12T10:56:05;53090.31;;;-144.69;20.72
56658;BME280;42530;52.240;19.354;2022-09-12T11:10:30;53123.63;;;-144.69;23.12
56658;BME280;42530;52.240;19.354;2022-09-12T11:16:24;53040.41;;;-144.69;18.96
56658;BME280;42530;52.240;19.354;2022-09-12T11:19:38;53042.47;;;-144.69;18.84
56658;BME280;42530;52.240;19.354;2022-09-12T11:28:59;53065.34;;;-144.69;19.80
56658;BME280;42530;52.240;19.354;2022-09-12T11:30:32;53054.97;;;-144.69;19.32
56658;BME280;42530;52.240;19.354;2022-09-12T11:35:51;53023.75;;;-144.69;18.86
56658;BME280;42530;52.240;19.354;2022-09-12T11:40:56;53071.59;;;-144.69;19.69
56658;BME280;42530;52.240;19.354;2022-09-12T11:43:44;53040.41;;;-144.69;20.34
56658;BME280;42530;52.240;19.354;2022-09-12T11:46:14;53061.19;;;-144.69;20.01
56658;BME280;42530;52.240;19.354;2022-09-12T11:49:01;53106.97;;;-144.69;21.30
56658;BME280;42530;52.240;19.354;2022-09-12T11:59:58;52990.47;;;-144.69;18.75
56658;BME280;42530;52.240;19.354;2022-09-12T12:02:37;52977.97;;;-144.69;20.77
56658;BME280;42530;52.240;19.354;2022-09-12T12:08:00;53042.47;;;-144.69;20.69
56658;BME280;42530;52.240;19.354;2022-09-12T12:10:41;53086.16;;;-144.69;19.08
56658;BME280;42530;52.240;19.354;2022-09-12T12:13:28;53069.53;;;-144.69;18.85
56658;BME280;42530;52.240;19.354;2022-09-12T12:16:25;53052.88;;;-144.69;20.16
56658;BME280;42530;52.240;19.354;2022-09-12T12:18:54;52975.91;;;-144.69;20.63
56658;BME280;42530;52.240;19.354;2022-09-12T12:34:45;53023.75;;;-144.69;19.22
56658;BME280;42530;52.240;19.354;2022-09-12T12:47:42;53009.19;;;-144.69;17.77
56658;BME280;42530;52.240;19.354;2022-09-12T12:50:27;53052.88;;;-144.69;17.41
56658;BME280;42530;52.240;19.354;2022-09-12T12:52:58;52957.19;;;-144.69;18.40
56658;BME280;42530;52.240;19.354;2022-09-12T12:55:31;53040.41;;;-144.69;18.64
56658;BME280;42530;52.240;19.354;2022-09-12T12:58:01;52961.34;;;-144.69;20.16
56658;BME280;42530;52.240;19.354;2022-09-12T13:00:31;52975.91;;;-144.69;21.57
56658;BME280;42530;52.240;19.354;2022-09-12T13:03:01;52930.13;;;-144.69;22.31
56658;BME280;42530;52.240;19.354;2022-09-12T13:05:48;52959.25;;;-144.69;22.01
56658;BME280;42530;52.240;19.354;2022-09-12T13:11:03;52948.84;;;-144.69;22.62
56658;BME280;42530;52.240;19.354;2022-09-12T13:16:08;52961.34;;;-144.69;24.27
56658;BME280;42530;52.240;19.354;2022-09-12T13:18:44;52957.19;;;-144.69;24.33
56658;BME280;42530;52.240;19.354;2022-09-12T13:21:16;52948.84;;;-144.69;24.73
56658;BME280;42530;52.240;19.354;2022-09-12T13:23:42;53044.56;;;-144.69;22.33
56658;BME280;42530;52.240;19.354;2022-09-12T13:26:19;53011.28;;;-144.69;19.54
56658;BME280;42530;52.240;19.354;2022-09-12T13:28:46;52942.63;;;-144.69;19.55
56658;BME280;42530;52.240;19.354;2022-09-12T13:31:23;52971.75;;;-144.69;21.50
56658;BME280;42530;52.240;19.354;2022-09-12T13:34:00;52932.22;;;-144.69;22.74
56658;BME280;42530;52.240;19.354;2022-09-12T13:44:25;52953.00;;;-144.69;25.12
56658;BME280;42530;52.240;19.354;2022-09-12T13:46:54;53013.34;;;-144.69;25.48
56658;BME280;42530;52.240;19.354;2022-09-12T13:52:03;52990.47;;;-144.69;19.39
56658;BME280;42530;52.240;19.354;2022-09-12T13:54:30;52919.72;;;-144.69;20.10
56658;BME280;42530;52.240;19.354;2022-09-12T13:56:57;52946.78;;;-144.69;21.00
56658;BME280;42530;52.240;19.354;2022-09-12T13:59:24;52942.63;;;-144.69;21.81
56658;BME280;42530;52.240;19.354;2022-09-12T14:01:50;52944.69;;;-144.69;22.84
56658;BME280;42530;52.240;19.354;2022-09-12T14:04:20;52944.69;;;-144.69;22.33
56658;BME280;42530;52.240;19.354;2022-09-12T14:09:41;52948.84;;;-144.69;23.00
56658;BME280;42530;52.240;19.354;2022-09-12T14:12:27;53036.22;;;-144.69;21.31
56658;BME280;42530;52.240;19.354;2022-09-12T14:14:54;52977.97;;;-144.69;19.06
56658;BME280;42530;52.240;19.354;2022-09-12T14:17:27;52923.91;;;-144.69;19.62
56658;BME280;42530;52.240;19.354;2022-09-12T14:20:01;52903.09;;;-144.69;21.53
56658;BME280;42530;52.240;19.354;2022-09-12T14:22:28;52934.28;;;-144.69;22.32
56658;BME280;42530;52.240;19.354;2022-09-12T14:24:55;52944.69;;;-144.69;23.41
56658;BME280;42530;52.240;19.354;2022-09-12T14:27:26;52967.59;;;-144.69;24.26
56658;BME280;42530;52.240;19.354;2022-09-12T14:33:15;52967.59;;;-144.69;24.09
56658;BME280;42530;52.240;19.354;2022-09-12T14:35:48;52932.22;;;-144.69;21.15
56658;BME280;42530;52.240;19.354;2022-09-12T14:41:05;52940.53;;;-144.69;22.71
56658;BME280;42530;52.240;19.354;2022-09-12T14:43:38;52948.84;;;-144.69;21.99
56658;BME280;42530;52.240;19.354;2022-09-12T14:49:17;52975.91;;;-144.69;19.48
56658;BME280;42530;52.240;19.354;2022-09-12T14:52:05;52932.22;;;-144.69;18.98
56658;BME280;42530;52.240;19.354;2022-09-12T14:57:00;52898.94;;;-144.69;21.41
56658;BME280;42530;52.240;19.354;2022-09-12T14:59:38;52959.25;;;-144.69;23.24
56658;BME280;42530;52.240;19.354;2022-09-12T15:04:54;52915.56;;;-144.69;21.08
56658;BME280;42530;52.240;19.354;2022-09-12T15:08:36;52948.84;;;-144.69;20.18
56658;BME280;42530;52.240;19.354;2022-09-12T15:11:05;52940.53;;;-144.69;20.37
56658;BME280;42530;52.240;19.354;2022-09-12T15:13:39;52967.59;;;-144.69;18.45
56658;BME280;42530;52.240;19.354;2022-09-12T15:16:08;52928.06;;;-144.69;18.23
56658;BME280;42530;52.240;19.354;2022-09-12T15:18:34;52944.69;;;-144.69;18.07